createdAt,value
2019-01-22T00:00:35.767Z,29.10
2019-01-22T00:01:35.752Z,29.00
2019-01-22T00:02:35.742Z,27.90
2019-01-22T00:03:35.722Z,30.40
2019-01-22T00:04:35.708Z,29.00
2019-01-22T00:05:35.692Z,25.50
2019-01-22T00:06:35.675Z,27.00
2019-01-22T00:07:35.659Z,28.70
2019-01-22T00:08:35.643Z,27.80
2019-01-22T00:09:35.627Z,28.00
2019-01-22T00:10:35.613Z,32.80
2019-01-22T00:11:35.607Z,33.20
2019-01-22T00:12:35.585Z,33.20
2019-01-22T00:13:35.579Z,30.40
2019-01-22T00:14:35.556Z,28.90
2019-01-22T00:15:35.539Z,28.90
2019-01-22T00:16:35.531Z,27.70
2019-01-22T00:17:35.506Z,29.80
2019-01-22T00:18:35.493Z,28.30
2019-01-22T00:19:35.476Z,26.10
2019-01-22T00:20:35.463Z,28.80
2019-01-22T00:21:35.444Z,26.30
2019-01-22T00:22:35.628Z,33.10
2019-01-22T00:23:35.413Z,26.90
2019-01-22T00:24:35.402Z,28.70
2019-01-22T00:25:35.381Z,23.90
2019-01-22T00:26:35.367Z,28.10
2019-01-22T00:27:35.353Z,27.80
2019-01-22T00:28:35.341Z,30.60
2019-01-22T00:29:35.318Z,28.90
2019-01-22T00:30:35.305Z,30.70
2019-01-22T00:31:35.290Z,30.00
2019-01-22T00:32:35.273Z,30.80
2019-01-22T00:33:35.258Z,29.20
2019-01-22T00:34:35.248Z,25.60
2019-01-22T00:35:35.226Z,27.70
2019-01-22T00:36:35.214Z,24.30
2019-01-22T00:37:35.196Z,27.30
2019-01-22T00:38:35.181Z,28.20
2019-01-22T00:39:35.164Z,27.00
2019-01-22T00:40:35.149Z,29.10
2019-01-22T00:41:35.893Z,28.70
2019-01-22T00:42:35.119Z,25.90
2019-01-22T00:43:35.107Z,27.20
2019-01-22T00:44:35.085Z,26.70
2019-01-22T00:45:35.071Z,28.40
2019-01-22T00:46:35.056Z,27.50
2019-01-22T00:47:35.044Z,29.70
2019-01-22T00:48:35.024Z,30.20
2019-01-22T00:49:35.008Z,28.70
2019-01-22T00:50:34.998Z,28.40
2019-01-22T00:51:34.977Z,30.70
2019-01-22T00:52:34.962Z,27.00
2019-01-22T00:53:34.954Z,30.90
2019-01-22T00:54:34.931Z,29.50
2019-01-22T00:55:34.919Z,27.00
2019-01-22T00:56:34.907Z,27.50
2019-01-22T00:57:34.893Z,28.10
2019-01-22T00:58:34.869Z,30.70
2019-01-22T00:59:34.853Z,27.40
2019-01-22T01:00:34.877Z,29.10
2019-01-22T01:01:34.826Z,24.80
2019-01-22T01:02:34.816Z,30.10
2019-01-22T01:03:34.793Z,29.60
2019-01-22T01:04:34.777Z,27.70
2019-01-22T01:05:34.762Z,26.20
2019-01-22T01:06:34.751Z,31.10
2019-01-22T01:07:34.732Z,32.40
2019-01-22T01:08:34.716Z,27.90
2019-01-22T01:09:34.707Z,28.90
2019-01-22T01:10:34.685Z,28.40
2019-01-22T01:11:34.670Z,25.30
2019-01-22T01:12:34.654Z,29.00
2019-01-22T01:13:34.638Z,29.80
2019-01-22T01:14:34.622Z,24.70
2019-01-22T01:15:34.606Z,28.00
2019-01-22T01:16:34.590Z,28.10
2019-01-22T01:17:34.581Z,27.50
2019-01-22T01:18:34.559Z,27.40
2019-01-22T01:19:34.542Z,27.70
2019-01-22T01:20:34.526Z,26.60
2019-01-22T01:21:34.513Z,27.70
2019-01-22T01:22:34.497Z,30.10
2019-01-22T01:23:34.487Z,28.10
2019-01-22T01:24:34.465Z,30.40
2019-01-22T01:25:34.459Z,27.70
2019-01-22T01:26:34.434Z,30.60
2019-01-22T01:27:34.416Z,30.60
2019-01-22T01:28:34.402Z,29.60
2019-01-22T01:29:34.388Z,25.40
2019-01-22T01:30:34.371Z,24.60
2019-01-22T01:31:34.355Z,29.40
2019-01-22T01:32:34.341Z,27.90
2019-01-22T01:33:34.328Z,26.70
2019-01-22T01:34:34.309Z,30.10
2019-01-22T01:35:34.292Z,27.40
2019-01-22T01:36:34.274Z,25.80
2019-01-22T01:37:34.259Z,25.80
2019-01-22T01:38:34.243Z,25.90
2019-01-22T01:39:34.228Z,24.90
2019-01-22T01:40:34.212Z,26.10
2019-01-22T01:41:34.195Z,27.10
2019-01-22T01:42:34.676Z,26.70
2019-01-22T01:43:34.199Z,24.30
2019-01-22T01:44:34.151Z,28.70
2019-01-22T01:45:34.133Z,26.50
2019-01-22T01:46:34.119Z,28.00
2019-01-22T01:47:34.098Z,28.70
2019-01-22T01:48:34.088Z,25.20
2019-01-22T01:49:34.067Z,26.00
2019-01-22T01:50:34.051Z,29.00
2019-01-22T01:51:34.054Z,26.90
2019-01-22T01:52:34.021Z,26.60
2019-01-22T01:53:34.007Z,27.00
2019-01-22T01:54:33.990Z,29.20
2019-01-22T01:55:33.971Z,26.20
2019-01-22T01:56:33.961Z,29.50
2019-01-22T01:57:33.943Z,27.40
2019-01-22T01:58:33.926Z,27.40
2019-01-22T01:59:33.907Z,27.60
2019-01-22T02:00:33.890Z,25.80
2019-01-22T02:01:33.876Z,26.70
2019-01-22T02:02:33.860Z,28.50
2019-01-22T02:03:33.846Z,27.70
2019-01-22T02:04:33.830Z,31.50
2019-01-22T02:05:33.819Z,28.40
2019-01-22T02:06:33.795Z,28.80
2019-01-22T02:07:33.778Z,29.80
2019-01-22T02:08:33.762Z,27.30
2019-01-22T02:09:33.745Z,27.90
2019-01-22T02:10:33.728Z,28.50
2019-01-22T02:11:33.714Z,28.40
2019-01-22T02:12:33.696Z,29.30
2019-01-22T02:13:33.680Z,26.40
2019-01-22T02:14:33.670Z,25.50
2019-01-22T02:15:33.647Z,30.30
2019-01-22T02:16:33.631Z,28.30
2019-01-22T02:17:33.617Z,26.50
2019-01-22T02:18:33.600Z,26.20
2019-01-22T02:19:33.588Z,30.20
2019-01-22T02:20:33.567Z,28.00
2019-01-22T02:21:33.554Z,25.20
2019-01-22T02:22:33.537Z,26.00
2019-01-22T02:23:33.528Z,28.20
2019-01-22T02:24:33.510Z,26.00
2019-01-22T02:25:33.484Z,24.80
2019-01-22T02:26:33.470Z,25.00
2019-01-22T02:27:33.454Z,25.30
2019-01-22T02:28:33.435Z,30.30
2019-01-22T02:29:33.422Z,28.40
2019-01-22T02:30:33.403Z,28.90
2019-01-22T02:31:33.386Z,26.30
2019-01-22T02:32:33.371Z,27.80
2019-01-22T02:33:33.357Z,27.50
2019-01-22T02:34:33.338Z,25.10
2019-01-22T02:35:33.322Z,26.30
2019-01-22T02:36:33.304Z,25.10
2019-01-22T02:37:33.289Z,25.30
2019-01-22T02:38:33.276Z,27.70
2019-01-22T02:39:33.255Z,26.30
2019-01-22T02:40:33.240Z,24.70
2019-01-22T02:41:33.227Z,24.40
2019-01-22T02:42:33.209Z,25.30
2019-01-22T02:43:33.438Z,25.30
2019-01-22T02:44:33.177Z,27.10
2019-01-22T02:45:33.161Z,27.70
2019-01-22T02:46:33.142Z,24.40
2019-01-22T02:47:33.127Z,27.80
2019-01-22T02:48:33.114Z,26.90
2019-01-22T02:49:33.094Z,25.20
2019-01-22T02:50:33.083Z,26.20
2019-01-22T02:51:33.063Z,23.40
2019-01-22T02:52:33.046Z,26.50
2019-01-22T02:53:38.696Z,26.70
2019-01-22T02:54:33.014Z,27.10
2019-01-22T02:55:33.001Z,27.30
2019-01-22T02:56:32.983Z,22.90
2019-01-22T02:57:32.966Z,27.30
2019-01-22T02:58:32.946Z,24.50
2019-01-22T02:59:32.932Z,25.90
2019-01-22T03:00:32.914Z,28.00
2019-01-22T03:01:32.899Z,27.60
2019-01-22T03:02:32.883Z,27.70
2019-01-22T03:03:32.868Z,26.10
2019-01-22T03:04:32.851Z,26.50
2019-01-22T03:05:32.834Z,26.80
2019-01-22T03:06:32.820Z,26.00
2019-01-22T03:07:32.802Z,25.30
2019-01-22T03:08:32.786Z,25.80
2019-01-22T03:09:32.770Z,25.10
2019-01-22T03:10:32.753Z,27.70
2019-01-22T03:11:32.734Z,25.20
2019-01-22T03:12:32.720Z,24.50
2019-01-22T03:13:32.706Z,25.10
2019-01-22T03:14:32.686Z,28.30
2019-01-22T03:15:32.673Z,22.20
2019-01-22T03:16:32.653Z,27.50
2019-01-22T03:17:32.637Z,25.20
2019-01-22T03:18:32.623Z,26.80
2019-01-22T03:19:32.606Z,22.00
2019-01-22T03:20:32.592Z,25.70
2019-01-22T03:21:32.574Z,25.80
2019-01-22T03:22:32.564Z,25.40
2019-01-22T03:23:32.551Z,25.70
2019-01-22T03:24:32.528Z,23.40
2019-01-22T03:25:32.507Z,25.50
2019-01-22T03:26:32.493Z,24.20
2019-01-22T03:27:32.474Z,25.60
2019-01-22T03:28:32.462Z,29.10
2019-01-22T03:29:32.447Z,23.10
2019-01-22T03:30:32.431Z,27.90
2019-01-22T03:31:32.422Z,26.40
2019-01-22T03:32:32.393Z,27.70
2019-01-22T03:33:32.378Z,27.20
2019-01-22T03:34:32.364Z,24.90
2019-01-22T03:35:32.346Z,25.70
2019-01-22T03:36:32.328Z,25.20
2019-01-22T03:37:32.313Z,28.30
2019-01-22T03:38:32.299Z,28.00
2019-01-22T03:39:32.284Z,28.00
2019-01-22T03:40:32.266Z,25.20
2019-01-22T03:41:32.247Z,32.80
2019-01-22T03:42:32.231Z,27.30
2019-01-22T03:43:32.221Z,26.60
2019-01-22T03:44:32.220Z,26.20
2019-01-22T03:45:32.179Z,29.70
2019-01-22T03:46:32.163Z,23.60
2019-01-22T03:47:32.159Z,27.80
2019-01-22T03:48:32.132Z,26.40
2019-01-22T03:49:32.117Z,26.30
2019-01-22T03:50:32.102Z,26.50
2019-01-22T03:51:32.083Z,26.60
2019-01-22T03:52:32.066Z,29.90
2019-01-22T03:53:32.059Z,28.40
2019-01-22T03:54:32.040Z,32.80
2019-01-22T03:55:32.016Z,29.50
2019-01-22T03:56:32.003Z,27.60
2019-01-22T03:57:31.986Z,29.80
2019-01-22T03:58:31.969Z,28.80
2019-01-22T03:59:31.952Z,28.40
2019-01-22T04:00:31.935Z,29.10
2019-01-22T04:01:31.919Z,27.90
2019-01-22T04:02:31.903Z,28.80
2019-01-22T04:03:31.889Z,28.20
2019-01-22T04:04:31.870Z,27.20
2019-01-22T04:05:31.856Z,29.10
2019-01-22T04:06:31.840Z,26.60
2019-01-22T04:07:31.821Z,27.90
2019-01-22T04:08:31.807Z,25.10
2019-01-22T04:09:31.840Z,29.50
2019-01-22T04:10:31.772Z,28.40
2019-01-22T04:11:31.758Z,28.80
2019-01-22T04:12:31.743Z,26.60
2019-01-22T04:13:31.732Z,28.50
2019-01-22T04:14:31.710Z,27.00
2019-01-22T04:15:32.601Z,27.00
2019-01-22T04:16:31.680Z,27.00
2019-01-22T04:17:31.661Z,27.20
2019-01-22T04:18:38.658Z,27.70
2019-01-22T04:19:31.627Z,27.10
2019-01-22T04:20:31.612Z,27.60
2019-01-22T04:21:31.596Z,30.00
2019-01-22T04:22:31.580Z,28.00
2019-01-22T04:23:31.563Z,31.60
2019-01-22T04:24:31.546Z,29.70
2019-01-22T04:25:31.531Z,25.10
2019-01-22T04:26:31.515Z,25.70
2019-01-22T04:27:31.497Z,27.20
2019-01-22T04:28:31.482Z,26.60
2019-01-22T04:29:31.467Z,29.70
2019-01-22T04:30:31.452Z,27.80
2019-01-22T04:31:31.431Z,25.60
2019-01-22T04:32:31.416Z,27.20
2019-01-22T04:33:31.400Z,28.80
2019-01-22T04:34:31.388Z,27.10
2019-01-22T04:35:31.367Z,31.20
2019-01-22T04:36:31.360Z,28.40
2019-01-22T04:37:31.340Z,25.40
2019-01-22T04:38:31.318Z,27.20
2019-01-22T04:39:31.304Z,28.80
2019-01-22T04:40:31.295Z,26.60
2019-01-22T04:41:31.271Z,26.40
2019-01-22T04:42:31.255Z,29.70
2019-01-22T04:43:31.237Z,25.30
2019-01-22T04:44:31.220Z,27.10
2019-01-22T04:45:31.207Z,26.60
2019-01-22T04:46:31.194Z,29.90
2019-01-22T04:47:31.175Z,23.50
2019-01-22T04:48:31.193Z,27.90
2019-01-22T04:49:31.143Z,25.70
2019-01-22T04:50:31.127Z,29.60
2019-01-22T04:51:31.109Z,26.30
2019-01-22T04:52:31.095Z,27.40
2019-01-22T04:53:31.075Z,25.50
2019-01-22T04:54:31.065Z,29.30
2019-01-22T04:55:31.045Z,27.80
2019-01-22T04:56:31.030Z,31.00
2019-01-22T04:57:31.013Z,29.70
2019-01-22T04:58:30.996Z,26.40
2019-01-22T04:59:30.979Z,27.20
2019-01-22T05:00:30.968Z,28.60
2019-01-22T05:01:30.951Z,23.90
2019-01-22T05:02:30.934Z,27.50
2019-01-22T05:03:30.915Z,26.10
2019-01-22T05:04:30.898Z,31.20
2019-01-22T05:05:30.885Z,25.70
2019-01-22T05:06:30.871Z,25.40
2019-01-22T05:07:30.853Z,28.80
2019-01-22T05:08:30.835Z,27.50
2019-01-22T05:09:30.822Z,29.40
2019-01-22T05:10:30.807Z,26.90
2019-01-22T05:11:30.784Z,28.70
2019-01-22T05:12:30.771Z,27.40
2019-01-22T05:13:30.754Z,27.20
2019-01-22T05:14:30.739Z,25.90
2019-01-22T05:15:30.722Z,26.70
2019-01-22T05:16:31.386Z,26.60
2019-01-22T05:17:30.690Z,29.00
2019-01-22T05:18:30.674Z,28.70
2019-01-22T05:19:30.665Z,25.50
2019-01-22T05:20:30.640Z,29.30
2019-01-22T05:21:30.693Z,30.70
2019-01-22T05:22:30.610Z,28.10
2019-01-22T05:23:30.596Z,25.00
2019-01-22T05:24:30.581Z,24.40
2019-01-22T05:25:30.562Z,27.90
2019-01-22T05:26:30.547Z,26.20
2019-01-22T05:27:30.527Z,30.30
2019-01-22T05:28:30.517Z,29.30
2019-01-22T05:29:30.495Z,30.30
2019-01-22T05:30:30.484Z,28.10
2019-01-22T05:31:30.463Z,28.60
2019-01-22T05:32:32.395Z,29.40
2019-01-22T05:33:30.431Z,24.70
2019-01-22T05:34:30.415Z,26.70
2019-01-22T05:35:30.398Z,26.30
2019-01-22T05:36:30.382Z,26.40
2019-01-22T05:37:30.369Z,28.10
2019-01-22T05:38:30.348Z,29.10
2019-01-22T05:39:30.335Z,27.20
2019-01-22T05:40:30.317Z,30.80
2019-01-22T05:41:30.298Z,27.70
2019-01-22T05:42:30.284Z,27.70
2019-01-22T05:43:30.265Z,29.80
2019-01-22T05:44:30.253Z,28.20
2019-01-22T05:45:30.242Z,32.00
2019-01-22T05:46:30.217Z,26.40
2019-01-22T05:47:30.202Z,27.20
2019-01-22T05:48:30.191Z,24.70
2019-01-22T05:49:30.168Z,26.90
2019-01-22T05:50:30.154Z,27.60
2019-01-22T05:51:30.138Z,27.00
2019-01-22T05:52:30.119Z,25.70
2019-01-22T05:53:30.102Z,30.20
2019-01-22T05:54:30.086Z,27.50
2019-01-22T05:55:30.074Z,29.40
2019-01-22T05:56:30.057Z,25.80
2019-01-22T05:57:30.044Z,26.30
2019-01-22T05:58:30.021Z,24.40
2019-01-22T05:59:30.006Z,23.80
2019-01-22T06:00:29.997Z,23.70
2019-01-22T06:01:29.973Z,24.20
2019-01-22T06:02:29.956Z,26.10
2019-01-22T06:03:29.942Z,25.00
2019-01-22T06:04:29.925Z,23.40
2019-01-22T06:05:29.911Z,24.00
2019-01-22T06:06:29.890Z,27.10
2019-01-22T06:07:29.873Z,25.40
2019-01-22T06:08:29.858Z,25.60
2019-01-22T06:09:29.847Z,29.20
2019-01-22T06:10:29.826Z,32.80
2019-01-22T06:11:29.808Z,26.40
2019-01-22T06:12:29.797Z,29.70
2019-01-22T06:13:29.779Z,30.70
2019-01-22T06:14:29.760Z,25.80
2019-01-22T06:15:29.740Z,32.60
2019-01-22T06:16:29.729Z,26.40
2019-01-22T06:17:30.150Z,27.80
2019-01-22T06:18:29.696Z,28.70
2019-01-22T06:19:29.677Z,24.30
2019-01-22T06:20:29.666Z,29.20
2019-01-22T06:21:29.645Z,26.80
2019-01-22T06:22:29.638Z,26.70
2019-01-22T06:23:29.611Z,24.30
2019-01-22T06:24:33.410Z,28.50
2019-01-22T06:25:29.585Z,29.10
2019-01-22T06:26:29.563Z,24.10
2019-01-22T06:27:29.547Z,27.90
2019-01-22T06:28:29.528Z,29.30
2019-01-22T06:29:29.511Z,28.30
2019-01-22T06:30:29.494Z,26.10
2019-01-22T06:31:29.479Z,29.10
2019-01-22T06:32:29.468Z,24.50
2019-01-22T06:33:29.450Z,32.70
2019-01-22T06:34:29.431Z,31.20
2019-01-22T06:35:29.412Z,27.50
2019-01-22T06:36:29.397Z,31.60
2019-01-22T06:37:29.384Z,27.60
2019-01-22T06:38:29.365Z,34.10
2019-01-22T06:39:29.345Z,32.40
2019-01-22T06:40:29.332Z,30.60
2019-01-22T06:41:29.315Z,29.50
2019-01-22T06:42:29.297Z,31.90
2019-01-22T06:43:29.281Z,30.50
2019-01-22T06:44:30.313Z,31.10
2019-01-22T06:45:29.252Z,30.10
2019-01-22T06:46:29.241Z,33.40
2019-01-22T06:47:29.219Z,31.40
2019-01-22T06:48:29.204Z,29.40
2019-01-22T06:49:29.185Z,31.00
2019-01-22T06:50:29.167Z,28.20
2019-01-22T06:51:29.149Z,27.50
2019-01-22T06:52:29.135Z,34.30
2019-01-22T06:53:29.117Z,27.50
2019-01-22T06:54:29.110Z,28.30
2019-01-22T06:55:29.086Z,30.40
2019-01-22T06:56:29.068Z,29.40
2019-01-22T06:57:29.050Z,24.50
2019-01-22T06:58:29.039Z,26.10
2019-01-22T06:59:29.018Z,31.70
2019-01-22T07:00:29.004Z,28.60
2019-01-22T07:01:28.997Z,26.40
2019-01-22T07:02:28.971Z,29.50
2019-01-22T07:03:28.955Z,30.60
2019-01-22T07:04:28.936Z,25.60
2019-01-22T07:05:28.922Z,31.00
2019-01-22T07:06:28.911Z,27.80
2019-01-22T07:07:28.970Z,29.00
2019-01-22T07:08:28.871Z,27.00
2019-01-22T07:09:28.855Z,26.20
2019-01-22T07:10:28.842Z,29.20
2019-01-22T07:11:28.821Z,27.10
2019-01-22T07:12:28.806Z,27.80
2019-01-22T07:13:28.800Z,27.70
2019-01-22T07:14:28.776Z,29.40
2019-01-22T07:15:28.770Z,28.60
2019-01-22T07:16:28.741Z,36.50
2019-01-22T07:17:28.727Z,30.70
2019-01-22T07:18:28.901Z,31.30
2019-01-22T07:19:28.692Z,27.40
2019-01-22T07:20:28.675Z,31.90
2019-01-22T07:21:28.665Z,30.40
2019-01-22T07:22:28.645Z,30.30
2019-01-22T07:23:28.629Z,27.10
2019-01-22T07:24:28.610Z,30.20
2019-01-22T07:25:28.595Z,29.70
2019-01-22T07:26:28.577Z,32.40
2019-01-22T07:27:28.560Z,28.60
2019-01-22T07:28:28.545Z,25.20
2019-01-22T07:29:28.530Z,31.70
2019-01-22T07:30:28.513Z,25.40
2019-01-22T07:31:28.500Z,26.80
2019-01-22T07:32:28.484Z,26.80
2019-01-22T07:33:28.465Z,26.90
2019-01-22T07:34:28.450Z,26.60
2019-01-22T07:35:28.431Z,25.80
2019-01-22T07:36:28.414Z,31.80
2019-01-22T07:37:28.404Z,28.30
2019-01-22T07:38:28.382Z,26.00
2019-01-22T07:39:28.366Z,24.70
2019-01-22T07:40:28.357Z,24.30
2019-01-22T07:41:28.331Z,24.30
2019-01-22T07:42:28.317Z,24.90
2019-01-22T07:43:28.298Z,25.10
2019-01-22T07:44:28.306Z,22.60
2019-01-22T07:45:28.268Z,29.10
2019-01-22T07:46:28.261Z,26.30
2019-01-22T07:47:28.235Z,27.80
2019-01-22T07:48:28.216Z,30.40
2019-01-22T07:49:28.228Z,26.80
2019-01-22T07:50:28.186Z,26.10
2019-01-22T07:51:28.166Z,28.40
2019-01-22T07:52:28.154Z,25.50
2019-01-22T07:53:28.135Z,27.70
2019-01-22T07:54:28.121Z,26.60
2019-01-22T07:55:28.108Z,26.00
2019-01-22T07:56:28.086Z,28.60
2019-01-22T07:57:28.069Z,26.20
2019-01-22T07:58:28.109Z,28.40
2019-01-22T07:59:28.078Z,24.30
2019-01-22T08:00:28.092Z,32.10
2019-01-22T08:01:28.075Z,30.80
2019-01-22T08:02:28.084Z,29.60
2019-01-22T08:03:27.969Z,26.80
2019-01-22T08:04:27.962Z,28.80
2019-01-22T08:05:27.939Z,27.50
2019-01-22T08:06:27.920Z,29.20
2019-01-22T08:07:27.901Z,27.90
2019-01-22T08:08:27.890Z,27.80
2019-01-22T08:09:27.870Z,27.10
2019-01-22T08:10:27.870Z,27.00
2019-01-22T08:11:27.837Z,27.70
2019-01-22T08:12:27.913Z,27.00
2019-01-22T08:13:27.814Z,29.10
2019-01-22T08:14:27.787Z,26.00
2019-01-22T08:15:27.776Z,29.70
2019-01-22T08:16:27.758Z,27.90
2019-01-22T08:17:27.739Z,29.00
2019-01-22T08:18:27.727Z,26.50
2019-01-22T08:19:27.705Z,30.20
2019-01-22T08:20:27.717Z,30.50
2019-01-22T08:21:27.791Z,29.10
2019-01-22T08:22:27.666Z,26.20
2019-01-22T08:23:27.638Z,29.70
2019-01-22T08:24:27.623Z,30.90
2019-01-22T08:25:27.608Z,26.20
2019-01-22T08:26:27.591Z,29.90
2019-01-22T08:27:29.653Z,27.50
2019-01-22T08:28:27.562Z,31.50
2019-01-22T08:29:27.545Z,26.30
2019-01-22T08:30:27.576Z,27.30
2019-01-22T08:31:27.513Z,31.70
2019-01-22T08:32:27.491Z,30.10
2019-01-22T08:33:27.482Z,28.90
2019-01-22T08:34:27.463Z,33.50
2019-01-22T08:35:27.444Z,28.50
2019-01-22T08:36:27.435Z,27.60
2019-01-22T08:37:27.415Z,29.10
2019-01-22T08:38:27.404Z,31.40
2019-01-22T08:39:27.381Z,28.80
2019-01-22T08:40:27.366Z,25.80
2019-01-22T08:41:27.348Z,27.90
2019-01-22T08:42:27.345Z,30.60
2019-01-22T08:43:27.326Z,30.20
2019-01-22T08:44:28.095Z,29.10
2019-01-22T08:45:27.283Z,27.50
2019-01-22T08:46:27.270Z,30.90
2019-01-22T08:47:27.251Z,31.70
2019-01-22T08:48:27.237Z,28.70
2019-01-22T08:49:27.220Z,33.80
2019-01-22T08:50:28.070Z,28.70
2019-01-22T08:51:27.189Z,29.40
2019-01-22T08:52:27.174Z,31.60
2019-01-22T08:53:27.159Z,29.30
2019-01-22T08:54:27.141Z,29.00
2019-01-22T08:55:27.127Z,28.20
2019-01-22T08:56:28.885Z,25.30
2019-01-22T08:57:27.098Z,32.30
2019-01-22T08:58:27.411Z,28.40
2019-01-22T08:59:27.148Z,30.80
2019-01-22T09:00:27.297Z,28.30
2019-01-22T09:01:27.035Z,25.40
2019-01-22T09:02:27.014Z,32.10
2019-01-22T09:03:26.999Z,29.50
2019-01-22T09:04:26.985Z,28.90
2019-01-22T09:05:26.965Z,28.10
2019-01-22T09:06:26.950Z,29.00
2019-01-22T09:07:26.938Z,31.40
2019-01-22T09:08:27.131Z,28.90
2019-01-22T09:09:26.902Z,31.30
2019-01-22T09:10:26.885Z,31.50
2019-01-22T09:11:26.871Z,28.50
2019-01-22T09:12:26.879Z,27.30
2019-01-22T09:13:26.841Z,29.40
2019-01-22T09:14:26.825Z,28.50
2019-01-22T09:15:26.806Z,27.40
2019-01-22T09:16:26.794Z,30.90
2019-01-22T09:17:26.777Z,29.90
2019-01-22T09:18:26.761Z,30.60
2019-01-22T09:19:26.741Z,31.00
2019-01-22T09:20:26.732Z,31.40
2019-01-22T09:21:26.712Z,28.90
2019-01-22T09:22:26.699Z,25.90
2019-01-22T09:23:26.680Z,29.00
2019-01-22T09:24:26.664Z,34.10
2019-01-22T09:25:26.667Z,31.10
2019-01-22T09:26:26.635Z,34.40
2019-01-22T09:27:26.617Z,30.60
2019-01-22T09:28:26.664Z,31.50
2019-01-22T09:29:26.619Z,29.20
2019-01-22T09:30:26.571Z,32.50
2019-01-22T09:31:26.627Z,35.00
2019-01-22T09:32:26.564Z,31.10
2019-01-22T09:33:26.525Z,30.60
2019-01-22T09:34:26.512Z,32.60
2019-01-22T09:35:26.501Z,30.60
2019-01-22T09:36:26.476Z,28.50
2019-01-22T09:37:26.462Z,30.60
2019-01-22T09:38:26.925Z,31.60
2019-01-22T09:39:26.444Z,27.70
2019-01-22T09:40:26.416Z,26.70
2019-01-22T09:41:26.406Z,26.20
2019-01-22T09:42:26.386Z,30.70
2019-01-22T09:43:26.373Z,27.40
2019-01-22T09:44:26.359Z,31.80
2019-01-22T09:45:26.341Z,28.30
2019-01-22T09:46:26.330Z,26.00
2019-01-22T09:47:26.317Z,29.60
2019-01-22T09:48:26.308Z,26.70
2019-01-22T09:49:26.279Z,30.70
2019-01-22T09:50:26.267Z,26.70
2019-01-22T09:51:26.862Z,30.50
2019-01-22T09:52:26.231Z,29.70
2019-01-22T09:53:26.222Z,29.40
2019-01-22T09:54:26.203Z,32.40
2019-01-22T09:55:30.250Z,31.60
2019-01-22T09:56:26.174Z,29.60
2019-01-22T09:57:26.155Z,31.30
2019-01-22T09:58:26.141Z,33.30
2019-01-22T09:59:26.123Z,30.10
2019-01-22T10:00:26.108Z,33.30
2019-01-22T10:01:26.101Z,32.70
2019-01-22T10:02:26.080Z,28.70
2019-01-22T10:03:26.071Z,33.60
2019-01-22T10:04:26.058Z,33.40
2019-01-22T10:05:26.035Z,28.20
2019-01-22T10:06:26.214Z,27.40
2019-01-22T10:07:26.121Z,32.00
2019-01-22T10:08:25.987Z,28.60
2019-01-22T10:09:25.980Z,29.90
2019-01-22T10:10:25.963Z,31.80
2019-01-22T10:11:25.947Z,31.10
2019-01-22T10:12:25.976Z,32.50
2019-01-22T10:13:27.060Z,32.30
2019-01-22T10:14:25.917Z,31.40
2019-01-22T10:15:25.883Z,36.10
2019-01-22T10:16:25.876Z,31.70
2019-01-22T10:17:25.864Z,40.30
2019-01-22T10:18:25.881Z,31.80
2019-01-22T10:19:25.820Z,32.50
2019-01-22T10:20:25.806Z,29.00
2019-01-22T10:21:25.793Z,32.30
2019-01-22T10:22:25.780Z,28.80
2019-01-22T10:23:27.366Z,29.60
2019-01-22T10:24:25.765Z,34.00
2019-01-22T10:25:29.639Z,32.20
2019-01-22T10:26:25.720Z,37.30
2019-01-22T10:27:25.703Z,32.10
2019-01-22T10:28:25.692Z,31.10
2019-01-22T10:29:25.673Z,34.00
2019-01-22T10:30:25.664Z,35.40
2019-01-22T10:31:25.647Z,31.00
2019-01-22T10:32:25.633Z,30.90
2019-01-22T10:33:25.618Z,28.70
2019-01-22T10:34:25.602Z,28.20
2019-01-22T10:35:25.585Z,30.40
2019-01-22T10:36:25.573Z,35.20
2019-01-22T10:37:25.557Z,33.00
2019-01-22T10:38:25.542Z,31.80
2019-01-22T10:39:25.529Z,31.40
2019-01-22T10:40:25.537Z,34.70
2019-01-22T10:41:25.503Z,31.60
2019-01-22T10:42:25.486Z,33.60
2019-01-22T10:43:25.469Z,30.30
2019-01-22T10:44:25.454Z,37.40
2019-01-22T10:45:25.443Z,34.90
2019-01-22T10:46:25.427Z,34.30
2019-01-22T10:47:25.414Z,33.50
2019-01-22T10:48:25.398Z,34.10
2019-01-22T10:49:25.411Z,39.70
2019-01-22T10:50:25.370Z,35.80
2019-01-22T10:51:25.359Z,38.60
2019-01-22T10:52:25.652Z,39.30
2019-01-22T10:53:25.338Z,37.30
2019-01-22T10:54:25.312Z,32.60
2019-01-22T10:55:25.297Z,33.00
2019-01-22T10:56:25.512Z,37.70
2019-01-22T10:57:25.271Z,34.40
2019-01-22T10:58:25.255Z,39.00
2019-01-22T10:59:25.242Z,32.60
2019-01-22T11:00:25.227Z,35.50
2019-01-22T11:01:25.213Z,38.00
2019-01-22T11:02:25.200Z,37.30
2019-01-22T11:03:25.182Z,34.40
2019-01-22T11:04:25.171Z,33.40
2019-01-22T11:05:25.159Z,36.00
2019-01-22T11:06:25.143Z,34.40
2019-01-22T11:07:25.131Z,36.50
2019-01-22T11:08:25.118Z,41.70
2019-01-22T11:09:25.103Z,37.40
2019-01-22T11:10:25.086Z,37.00
2019-01-22T11:11:25.073Z,37.40
2019-01-22T11:12:25.062Z,32.50
2019-01-22T11:13:25.049Z,29.90
2019-01-22T11:14:25.051Z,31.30
2019-01-22T11:15:28.064Z,32.50
2019-01-22T11:16:25.150Z,32.20
2019-01-22T11:17:24.991Z,32.30
2019-01-22T11:18:24.980Z,36.50
2019-01-22T11:19:27.861Z,31.90
2019-01-22T11:20:24.948Z,31.50
2019-01-22T11:21:24.941Z,32.40
2019-01-22T11:22:24.922Z,32.70
2019-01-22T11:23:24.909Z,31.40
2019-01-22T11:24:30.217Z,33.80
2019-01-22T11:25:24.948Z,35.40
2019-01-22T11:26:25.232Z,33.90
2019-01-22T11:27:25.542Z,37.00
2019-01-22T11:28:25.117Z,35.80
2019-01-22T11:29:24.939Z,32.70
2019-01-22T11:30:24.812Z,33.30
2019-01-22T11:31:24.820Z,40.00
2019-01-22T11:32:24.790Z,35.80
2019-01-22T11:33:24.782Z,34.70
2019-01-22T11:34:24.760Z,34.40
2019-01-22T11:35:24.750Z,37.80
2019-01-22T11:36:24.736Z,36.90
2019-01-22T11:37:24.718Z,32.80
2019-01-22T11:38:24.709Z,42.00
2019-01-22T11:39:24.707Z,35.60
2019-01-22T11:40:24.685Z,35.00
2019-01-22T11:41:24.666Z,33.10
2019-01-22T11:42:24.670Z,36.40
2019-01-22T11:43:24.643Z,37.90
2019-01-22T11:44:24.626Z,35.80
2019-01-22T11:45:24.616Z,32.50
2019-01-22T11:46:24.604Z,37.50
2019-01-22T11:47:24.589Z,38.00
2019-01-22T11:48:24.576Z,38.10
2019-01-22T11:49:24.564Z,35.30
2019-01-22T11:50:24.551Z,33.50
2019-01-22T11:51:24.538Z,33.80
2019-01-22T11:52:24.523Z,34.60
2019-01-22T11:53:25.620Z,33.70
2019-01-22T11:54:24.565Z,37.70
2019-01-22T11:55:24.485Z,38.10
2019-01-22T11:56:24.634Z,35.80
2019-01-22T11:57:24.461Z,38.80
2019-01-22T11:58:24.451Z,37.50
2019-01-22T11:59:24.475Z,36.60
2019-01-22T12:00:24.419Z,39.30
2019-01-22T12:01:24.420Z,40.60
2019-01-22T12:02:24.397Z,40.60
2019-01-22T12:03:24.384Z,42.10
2019-01-22T12:04:24.379Z,33.50
2019-01-22T12:05:24.366Z,36.80
2019-01-22T12:06:24.344Z,38.10
2019-01-22T12:07:24.335Z,37.20
2019-01-22T12:08:24.318Z,39.70
2019-01-22T12:09:24.307Z,35.70
2019-01-22T12:10:24.297Z,33.00
2019-01-22T12:11:24.283Z,32.80
2019-01-22T12:12:24.269Z,32.60
2019-01-22T12:13:24.255Z,36.30
2019-01-22T12:14:24.251Z,32.30
2019-01-22T12:15:25.231Z,34.40
2019-01-22T12:16:24.293Z,34.60
2019-01-22T12:17:26.396Z,36.40
2019-01-22T12:18:24.196Z,35.60
2019-01-22T12:19:24.794Z,32.80
2019-01-22T12:20:24.169Z,34.80
2019-01-22T12:21:24.155Z,35.20
2019-01-22T12:22:25.059Z,34.40
2019-01-22T12:23:24.133Z,35.20
2019-01-22T12:24:24.812Z,40.30
2019-01-22T12:25:24.116Z,38.00
2019-01-22T12:26:24.111Z,35.80
2019-01-22T12:27:24.083Z,33.20
2019-01-22T12:28:24.093Z,39.50
2019-01-22T12:29:24.061Z,46.50
2019-01-22T12:30:24.047Z,46.60
2019-01-22T12:31:24.103Z,40.70
2019-01-22T12:32:24.019Z,40.70
2019-01-22T12:33:24.031Z,37.50
2019-01-22T12:34:23.997Z,36.10
2019-01-22T12:35:24.025Z,40.70
2019-01-22T12:36:23.974Z,35.70
2019-01-22T12:37:23.959Z,33.60
2019-01-22T12:38:23.949Z,32.90
2019-01-22T12:39:23.937Z,32.40
2019-01-22T12:40:23.927Z,32.90
2019-01-22T12:41:23.914Z,31.40
2019-01-22T12:42:23.901Z,34.40
2019-01-22T12:43:23.886Z,32.40
2019-01-22T12:44:23.875Z,33.10
2019-01-22T12:45:23.862Z,39.80
2019-01-22T12:46:23.853Z,37.10
2019-01-22T12:47:23.837Z,41.20
2019-01-22T12:48:23.830Z,36.10
2019-01-22T12:49:23.815Z,34.50
2019-01-22T12:50:25.744Z,36.40
2019-01-22T12:51:23.791Z,40.20
2019-01-22T12:52:23.775Z,44.60